Flight Track Log - Related Links

Times and Time Zones

All times are in EDT time to prevent confusion due to time zone crossing. See the UAL780 flight status page for this flight to view local times or setup timezone preferences in your user account.

Time Position Orientation Groundspeed Altitude Reporting Facility
EDT Latitude Longitude Course Direction KTS MPH feet Rate Location/Type
Sat 10:26:19 AM 29.9556 -95.3444 291° West 166 191 900  Level Houston Center
Sat 10:27:14 AM 29.9233 -95.3819 225° Southwest 209 241 2,200 1,655 Climbing Houston Center
Sat 10:28:15 AM 29.9194 -95.4614 267° West 246 283 4,100 2,244 Climbing Houston Center
Sat 10:29:00 AM 30.0273 -95.7394 277° West  Level FlightAware Approximate
Sat 10:29:17 AM 29.9283 -95.5447 277° West 262 302 6,800  Level Houston Center
Sat 10:30:00 AM 30.0397 -95.8758 276° West  Level FlightAware Approximate
Sat 10:30:16 AM 29.9547 -95.6361 288° West 288 331 9,600  Level Houston Center
Sat 10:31:00 AM 30.0538 -96.0115 291° West  Level FlightAware Approximate
Sat 10:31:21 AM 29.9789 -95.7253 287° West 296 341 11,100  Level Houston Center
Sat 10:32:23 AM 30.0094 -95.8367 288° West 365 420 11,900 1,258 Climbing Houston Center
Sat 10:33:25 AM 30.0414 -95.9556 287° West 388 447 13,700 1,756 Climbing Houston Center
Sat 10:34:26 AM 30.0764 -96.0944 286° West 395 455 15,500 1,512 Climbing Houston Center
Sat 10:35:28 AM 30.0953 -96.2244 280° West 409 471 16,800 1,355 Climbing Houston Center
Sat 10:36:30 AM 30.1172 -96.3575 281° West 421 484 18,300 1,403 Climbing Houston Center
Sat 10:37:32 AM 30.1383 -96.4997 280° West 430 495 19,700 1,355 Climbing Houston Center
Sat 10:38:34 AM 30.1594 -96.6400 280° West 437 503 21,100 1,258 Climbing Houston Center
Sat 10:39:36 AM 30.1842 -96.8042 280° West 440 506 22,300 1,113 Climbing Houston Center
Sat 10:40:38 AM 30.2058 -96.9483 280° West 447 514 23,400 871 Climbing Houston Center
Sat 10:41:40 AM 30.2275 -97.0961 280° West 456 525 24,100 677 Climbing Houston Center
Sat 10:42:42 AM 30.2558 -97.2458 282° West 469 540 24,800 871 Climbing Houston Center
Sat 10:43:44 AM 30.2953 -97.3922 287° West 469 540 25,900 878 Climbing Houston Center
Sat 10:44:45 AM 30.3350 -97.5378 288° West 468 539 26,600 732 Climbing Houston Center
Sat 10:45:47 AM 30.3736 -97.6858 287° West 472 543 27,400 871 Climbing Houston Center
Sat 10:46:49 AM 30.4164 -97.8306 289° West 469 540 28,400 919 Climbing Houston Center
Sat 10:47:51 AM 30.4953 -97.9514 307° West 462 532 29,300 1,016 Climbing Houston Center
Sat 10:48:53 AM 30.5783 -98.0689 309° West 464 534 30,500 1,268 Climbing Houston Center
Sat 10:49:54 AM 30.6589 -98.1828 309° West 453 521 31,900 1,122 Climbing Houston Center
Sat 10:50:56 AM 30.7364 -98.2942 309° West 440 506 32,800 871 Climbing Houston Center
Sat 10:51:58 AM 30.8264 -98.4239 309° West 437 503 33,700 585 Climbing Houston Center
Sat 10:52:59 AM 30.9042 -98.5356 309° West 439 505 34,000 146 Climbing Houston Center
Sat 10:54:01 AM 30.9819 -98.6506 308° West 444 511 34,000  Level Houston Center
Sat 10:55:03 AM 31.0614 -98.7639 309° West 445 512 34,000  Level Houston Center
Sat 10:56:05 AM 31.1408 -98.8772 309° West 445 512 34,000  Level Houston Center
Sat 10:57:06 AM 31.2194 -98.9925 309° West 447 514 34,000  Level Houston Center
Sat 10:58:08 AM 31.2989 -99.1086 309° West 451 519 34,000  Level Houston Center
Sat 10:59:10 AM 31.3786 -99.2247 309° West 453 521 34,000  Level Houston Center
Sat 11:00:12 AM 31.4586 -99.3431 308° West 457 526 34,000  Level Houston Center
Sat 11:01:14 AM 31.5378 -99.4606 308° West 454 522 34,000 -49 Level Houston Center
Sat 11:02:15 AM 31.6281 -99.5889 310° West 456 525 33,900  Descending Houston Center
Sat 11:03:00 AM 31.6814 -99.6739 306° West 458 527 34,000 57 Climbing Fort Worth Center
Sat 11:04:00 AM 31.7606 -99.7956 307° West 458 527 34,000  Level Fort Worth Center
Sat 11:05:00 AM 31.8417 -99.9150 309° West 470 541 34,000  Level Fort Worth Center
Sat 11:06:00 AM 31.9247 -100.0397 308° West 470 541 34,000  Level Fort Worth Center
Sat 11:07:00 AM 32.0036 -100.1597 308° West 470 541 34,000  Level Fort Worth Center
Sat 11:08:00 AM 32.0864 -100.2847 308° West 470 541 34,000  Level Fort Worth Center
Sat 11:09:00 AM 32.1692 -100.4075 309° West 470 541 34,000  Level Fort Worth Center
Sat 11:10:00 AM 32.2517 -100.5356 307° West 470 541 34,000  Level Fort Worth Center
Sat 11:11:00 AM 32.3422 -100.6739 308° West 475 547 34,000  Level Fort Worth Center
Sat 11:12:00 AM 32.4283 -100.8025 308° West 485 558 34,000  Level Fort Worth Center
Sat 11:13:00 AM 32.5106 -100.9289 308° West 497 572 34,000  Level Fort Worth Center
Sat 11:14:00 AM 32.5947 -101.0553 308° West 497 572 34,000  Level Fort Worth Center
Sat 11:15:00 AM 32.6806 -101.1847 308° West 492 566 34,000  Level Fort Worth Center
Sat 11:16:00 AM 32.7581 -101.3139 306° West 492 566 34,000  Level Fort Worth Center
Sat 11:17:00 AM 32.8397 -101.4386 308° West 492 566 34,000  Level Fort Worth Center
Sat 11:18:00 AM 32.9231 -101.5661 308° West 492 566 34,000  Level Fort Worth Center
Sat 11:19:00 AM 33.0006 -101.6886 307° West 481 554 34,000  Level Fort Worth Center
Sat 11:20:00 AM 33.0758 -101.8039 308° West 481 554 34,000  Level Fort Worth Center
Sat 11:21:00 AM 33.1647 -101.9447 307° West 481 554 34,000  Level Fort Worth Center
Sat 11:22:00 AM 33.2336 -102.0597 306° West 481 554 34,000  Level Fort Worth Center
Sat 11:23:00 AM 33.3203 -102.1961 307° West 481 554 34,000  Level Fort Worth Center
Sat 11:24:00 AM 33.3931 -102.3119 307° West 481 554 34,000  Level Fort Worth Center
Sat 11:25:00 AM 33.4814 -102.4514 307° West 476 548 34,000  Level Fort Worth Center
Sat 11:26:00 AM 33.5597 -102.5756 307° West 476 548 34,000 -50 Level Fort Worth Center
Sat 11:27:00 AM 33.6419 -102.7050 307° West 471 542 33,900  Descending Fort Worth Center
Sat 11:28:00 AM 33.7178 -102.8319 306° West 478 550 34,000 66 Climbing Fort Worth Center
Sat 11:28:31 AM 33.7567 -102.8881 310° West 478 550 34,000  Level Albuquerque Center
Sat 11:29:33 AM 33.8361 -103.0144 307° West 476 548 34,000  Level Albuquerque Center
Sat 11:30:35 AM 33.9142 -103.1403 307° West 472 543 34,000  Level Albuquerque Center
Sat 11:31:37 AM 33.9933 -103.2683 307° West 475 547 34,000  Level Albuquerque Center
Sat 11:32:39 AM 34.0692 -103.3975 305° West 474 545 34,000  Level Albuquerque Center
Sat 11:33:41 AM 34.1611 -103.5525 306° West 475 547 34,000  Level Albuquerque Center
Sat 11:34:42 AM 34.2417 -103.6856 306° West 469 540 34,000  Level Albuquerque Center
Sat 11:35:44 AM 34.3200 -103.8122 307° West 467 537 34,000  Level Albuquerque Center
Sat 11:36:46 AM 34.3958 -103.9419 305° West 466 536 34,000  Level Albuquerque Center
Sat 11:37:48 AM 34.4731 -104.0706 306° West 467 537 34,000  Level Albuquerque Center
Sat 11:38:50 AM 34.5494 -104.1978 306° West 463 533 34,000  Level Albuquerque Center
Sat 11:39:51 AM 34.6242 -104.3242 306° West 457 526 34,000  Level Albuquerque Center
Sat 11:40:53 AM 34.7008 -104.4525 306° West 460 529 34,000  Level Albuquerque Center
Sat 11:41:55 AM 34.7761 -104.5817 305° West 461 531 34,000  Level Albuquerque Center
Sat 11:42:56 AM 34.8522 -104.7114 306° West 463 533 34,000  Level Albuquerque Center
Sat 11:43:58 AM 34.9286 -104.8403 306° West 463 533 34,000  Level Albuquerque Center
Sat 11:45:00 AM 35.0164 -104.9911 305° West 462 532 34,000  Level Albuquerque Center
Sat 11:46:02 AM 35.0919 -105.1194 306° West 461 531 34,000  Level Albuquerque Center
Sat 11:47:03 AM 35.1678 -105.2489 306° West 462 532 34,000  Level Albuquerque Center
Sat 11:48:05 AM 35.2419 -105.3786 305° West 461 531 34,000  Level Albuquerque Center
Sat 11:49:07 AM 35.3156 -105.5075 305° West 459 528 34,000  Level Albuquerque Center
Sat 11:50:09 AM 35.3897 -105.6369 305° West 459 528 34,000  Level Albuquerque Center
Sat 11:51:10 AM 35.4647 -105.7658 306° West 459 528 34,000  Level Albuquerque Center
Sat 11:52:12 AM 35.5400 -105.9000 305° West 458 527 34,000  Level Albuquerque Center
Sat 11:53:14 AM 35.6131 -106.0278 305° West 460 529 34,000  Level Albuquerque Center
Sat 11:54:16 AM 35.6858 -106.1575 305° West 461 531 34,000  Level Albuquerque Center
Sat 11:55:18 AM 35.7708 -106.3039 306° West 460 529 34,000  Level Albuquerque Center
Sat 11:56:19 AM 35.8589 -106.4094 316° Northwest 457 526 34,000  Level Albuquerque Center
Sat 11:57:21 AM 35.9558 -106.5292 315° West 457 526 34,000  Level Albuquerque Center
Sat 11:58:23 AM 36.0456 -106.6403 315° West 458 527 34,000  Level Albuquerque Center
Sat 11:59:25 AM 36.1342 -106.7514 315° West 457 526 34,000  Level Albuquerque Center
Sat 12:00:27 PM 36.2308 -106.8703 315° West 458 527 34,000  Level Albuquerque Center
Sat 12:01:29 PM 36.3300 -106.9958 314° West 456 525 34,000  Level Albuquerque Center
Sat 12:02:15 PM 36.3869 -107.0647 316° Northwest 454 522 34,000  Level Denver Center
Sat 12:03:18 PM 36.4853 -107.1908 314° West 455 524 34,000  Level Denver Center
Sat 12:04:20 PM 36.5711 -107.2981 315° West 456 525 34,000  Level Denver Center
Sat 12:05:22 PM 36.6678 -107.4217 314° West 452 520 34,000  Level Denver Center
Sat 12:06:24 PM 36.7533 -107.5314 314° West 457 526 34,000  Level Denver Center
Sat 12:07:26 PM 36.8536 -107.6594 314° West 462 532 34,000  Level Denver Center
Sat 12:08:28 PM 36.9386 -107.7672 315° West 456 525 34,000  Level Denver Center
Sat 12:09:30 PM 37.0361 -107.8931 314° West 451 519 34,000  Level Denver Center
Sat 12:10:32 PM 37.1208 -108.0028 314° West 456 525 34,000  Level Denver Center
Sat 12:11:34 PM 37.2189 -108.1311 314° West 458 527 34,000  Level Denver Center
Sat 12:12:36 PM 37.3022 -108.2403 314° West 455 524 34,000  Level Denver Center
Sat 12:13:38 PM 37.4000 -108.3675 314° West 454 522 34,000  Level Denver Center
Sat 12:14:40 PM 37.4833 -108.4764 314° West 453 521 34,000  Level Denver Center
Sat 12:15:42 PM 37.5794 -108.6008 314° West 445 512 34,000  Level Denver Center
Sat 12:16:44 PM 37.6622 -108.7111 313° West 448 516 34,000  Level Denver Center
Sat 12:17:46 PM 37.7589 -108.8414 313° West 454 522 34,000  Level Denver Center
Sat 12:18:49 PM 37.8425 -108.9494 314° West 450 518 34,000  Level Denver Center
Sat 12:19:51 PM 37.9386 -109.0778 314° West 453 521 34,000  Level Denver Center
Sat 12:20:53 PM 38.0200 -109.1886 313° West 449 517 34,000  Level Denver Center
Sat 12:21:55 PM 38.1125 -109.3122 314° West 446 513 34,000  Level Denver Center
Sat 12:22:57 PM 38.1942 -109.4233 313° West 447 514 34,000  Level Denver Center
Sat 12:23:59 PM 38.2903 -109.5539 313° West 450 518 34,000  Level Denver Center
Sat 12:25:01 PM 38.3733 -109.6669 313° West 454 522 34,000  Level Denver Center
Sat 12:26:03 PM 38.4556 -109.7789 313° West 451 519 34,000  Level Denver Center
Sat 12:27:05 PM 38.5503 -109.9083 313° West 446 513 34,000  Level Denver Center
Sat 12:28:07 PM 38.6317 -110.0197 313° West 445 512 34,000 93 Level Denver Center
Sat 12:29:14 PM 38.7264 -110.1517 313° West 447 514 34,200 47 Climbing Salt Lake Center
Sat 12:30:16 PM 38.8211 -110.2836 313° West 448 516 34,100 -101 Descending Salt Lake Center
Sat 12:31:13 PM 38.9019 -110.3958 313° West 451 519 34,000 -50 Descending Denver Center
Sat 12:32:15 PM 38.9822 -110.5086 313° West 450 518 34,000  Level Denver Center
Sat 12:33:17 PM 39.0775 -110.6406 313° West 448 516 34,000  Level Denver Center
Sat 12:34:24 PM 39.1686 -110.7711 312° West 442 509 34,000  Level Salt Lake Center
Sat 12:35:26 PM 39.2475 -110.8842 312° West 443 510 34,000  Level Salt Lake Center
Sat 12:36:28 PM 39.3425 -111.0164 313° West 444 511 34,000  Level Salt Lake Center
Sat 12:37:30 PM 39.4206 -111.1278 312° West 439 505 34,000  Level Salt Lake Center
Sat 12:38:32 PM 39.4975 -111.2397 312° West 436 502 34,000  Level Salt Lake Center
Sat 12:39:34 PM 39.5933 -111.3772 312° West 437 503 34,000  Level Salt Lake Center
Sat 12:40:36 PM 39.6747 -111.4939 312° West 437 503 34,000  Level Salt Lake Center
Sat 12:41:38 PM 39.7569 -111.6147 312° West 445 512 34,000  Level Salt Lake Center
Sat 12:42:40 PM 39.8372 -111.7331 311° West 438 504 34,000  Level Salt Lake Center
Sat 12:43:42 PM 39.9186 -111.8500 312° West 434 499 34,000  Level Salt Lake Center
Sat 12:44:44 PM 39.9992 -111.9683 312° West 434 499 34,000  Level Salt Lake Center
Sat 12:45:46 PM 40.0783 -112.0858 311° West 433 498 34,000  Level Salt Lake Center
Sat 12:46:48 PM 40.1739 -112.2267 312° West 431 496 34,000  Level Salt Lake Center
Sat 12:47:50 PM 40.2531 -112.3425 312° West 428 493 34,000  Level Salt Lake Center
Sat 12:48:52 PM 40.3322 -112.4589 312° West 427 491 34,000  Level Salt Lake Center
Sat 12:49:54 PM 40.4094 -112.5744 311° West 422 486 34,000  Level Salt Lake Center
Sat 12:50:57 PM 40.4889 -112.6922 312° West 430 495 34,000  Level Salt Lake Center
Sat 12:51:59 PM 40.5653 -112.8083 311° West 421 484 34,000  Level Salt Lake Center
Sat 12:53:01 PM 40.6589 -112.9475 312° West 421 484 34,000  Level Salt Lake Center
Sat 12:54:03 PM 40.7347 -113.0656 310° West 421 484 34,000  Level Salt Lake Center
Sat 12:55:05 PM 40.8128 -113.1825 311° West 422 486 34,000  Level Salt Lake Center
Sat 12:56:07 PM 40.8903 -113.3000 311° West 423 487 34,000  Level Salt Lake Center
Sat 12:57:09 PM 40.9667 -113.4181 311° West 422 486 34,000  Level Salt Lake Center
Sat 12:58:10 PM 41.0431 -113.5361 311° West 422 486 34,000  Level Salt Lake Center
Sat 12:59:12 PM 41.1192 -113.6536 311° West 422 486 34,000  Level Salt Lake Center
Sat 01:00:16 PM 41.2092 -113.7956 310° West 420 483 34,000  Level Salt Lake Center
Sat 01:01:18 PM 41.2847 -113.9136 310° West 420 483 34,000  Level Salt Lake Center
Sat 01:02:20 PM 41.3597 -114.0333 310° West 421 484 34,000  Level Salt Lake Center
Sat 01:03:22 PM 41.4364 -114.1517 311° West 422 486 34,000  Level Salt Lake Center
Sat 01:04:24 PM 41.5136 -114.2728 310° West 428 493 34,000  Level Salt Lake Center
Sat 01:05:26 PM 41.5892 -114.3936 310° West 426 490 34,000  Level Salt Lake Center
Sat 01:06:27 PM 41.6800 -114.5389 310° West 429 494 34,000  Level Salt Lake Center
Sat 01:07:29 PM 41.7544 -114.6572 310° West 433 498 34,000  Level Salt Lake Center
Sat 01:08:31 PM 41.8408 -114.7969 310° West 436 502 34,000  Level Salt Lake Center
Sat 01:09:33 PM 41.9175 -114.9197 310° West 443 510 34,000  Level Salt Lake Center
Sat 01:10:35 PM 42.0042 -115.0594 310° West 437 503 34,000  Level Salt Lake Center
Sat 01:11:37 PM 42.0792 -115.1819 310° West 444 511 34,000  Level Salt Lake Center
Sat 01:12:39 PM 42.1572 -115.3122 309° West 440 506 34,000  Level Salt Lake Center
Sat 01:13:41 PM 42.2433 -115.4542 309° West 438 504 34,000  Level Salt Lake Center
Sat 01:14:43 PM 42.3167 -115.5761 309° West 438 504 34,000  Level Salt Lake Center
Sat 01:15:45 PM 42.4025 -115.7183 309° West 436 502 34,000  Level Salt Lake Center
Sat 01:16:47 PM 42.4761 -115.8408 309° West 437 503 34,000  Level Salt Lake Center
Sat 01:17:49 PM 42.5481 -115.9625 309° West 433 498 34,000  Level Salt Lake Center
Sat 01:18:51 PM 42.6322 -116.1033 309° West 430 495 34,000  Level Salt Lake Center
Sat 01:19:53 PM 42.7039 -116.2253 309° West 430 495 34,000  Level Salt Lake Center
Sat 01:20:55 PM 42.7869 -116.3669 309° West 429 494 34,000  Level Salt Lake Center
Sat 01:21:57 PM 42.8583 -116.4869 309° West 425 489 34,000  Level Salt Lake Center
Sat 01:22:59 PM 42.9419 -116.6303 309° West 429 494 34,000  Level Salt Lake Center
Sat 01:24:01 PM 43.0133 -116.7522 309° West 429 494 34,000  Level Salt Lake Center
Sat 01:25:03 PM 43.0958 -116.8958 308° West 429 494 34,000  Level Salt Lake Center
Sat 01:26:53 PM 43.2253 -117.1189 309° West 426 490 34,000  Level Seattle Center
Sat 01:27:54 PM 43.2950 -117.2428 308° West 426 490 34,000  Level Seattle Center
Sat 01:29:11 PM 43.3886 -117.4069 308° West 426 490 34,000  Level Salt Lake Center
Sat 01:30:13 PM 43.4697 -117.5497 308° West 425 489 34,000  Level Salt Lake Center
Sat 01:31:15 PM 43.5389 -117.6733 308° West 424 488 34,000  Level Salt Lake Center
Sat 01:32:17 PM 43.6208 -117.8167 308° West 426 490 34,000  Level Salt Lake Center
Sat 01:33:19 PM 43.6903 -117.9406 308° West 425 489 34,000  Level Salt Lake Center
Sat 01:34:22 PM 43.7706 -118.0858 307° West 425 489 34,000  Level Salt Lake Center
Sat 01:35:24 PM 43.8394 -118.2106 307° West 424 488 34,000  Level Salt Lake Center
Sat 01:36:26 PM 43.9139 -118.3444 308° West 425 489 34,000  Level Salt Lake Center
Sat 01:37:04 PM 43.9639 -118.4375 307° West 420 483 34,000  Level Seattle Center
Sat 01:38:06 PM 44.0328 -118.5631 307° West 423 487 34,000  Level Seattle Center
Sat 01:39:07 PM 44.0972 -118.6825 307° West 425 489 34,000  Level Seattle Center
Sat 01:40:08 PM 44.1686 -118.8119 308° West 424 488 34,000  Level Seattle Center
Sat 01:41:09 PM 44.2544 -118.9683 307° West 425 489 34,000  Level Seattle Center
Sat 01:42:11 PM 44.3258 -119.1003 307° West 427 491 34,000  Level Seattle Center
Sat 01:43:12 PM 44.3967 -119.2333 307° West 429 494 34,000  Level Seattle Center
Sat 01:44:13 PM 44.4667 -119.3656 307° West 425 489 34,000  Level Seattle Center
Sat 01:45:14 PM 44.5378 -119.4997 307° West 428 493 34,000  Level Seattle Center
Sat 01:46:16 PM 44.6078 -119.6328 306° West 426 490 34,000  Level Seattle Center
Sat 01:47:17 PM 44.6819 -119.7631 309° West 425 489 34,000  Level Seattle Center
Sat 01:48:18 PM 44.7622 -119.8869 312° West 428 493 34,000  Level Seattle Center
Sat 01:49:19 PM 44.8433 -120.0139 312° West 428 493 34,000 -390 Level Seattle Center
Sat 01:50:21 PM 44.9261 -120.1414 313° West 428 493 33,200 -1,268 Descending Seattle Center
Sat 01:51:22 PM 45.0067 -120.2681 312° West 428 493 31,400 -2,213 Descending Seattle Center
Sat 01:52:23 PM 45.0869 -120.3931 312° West 430 495 28,700 -2,098 Descending Seattle Center
Sat 01:53:25 PM 45.1625 -120.5139 312° West 414 476 27,100 -1,707 Descending Seattle Center
Sat 01:54:26 PM 45.2158 -120.6442 300° West 383 441 25,200 -2,164 Descending Seattle Center
Sat 01:55:27 PM 45.2761 -120.8011 299° West 379 436 22,700 -2,195 Descending Seattle Center
Sat 01:56:29 PM 45.3253 -120.9292 299° West 373 429 20,700 -2,098 Descending Seattle Center
Sat 01:57:30 PM 45.3744 -121.0569 299° West 370 426 18,400 -2,115 Descending Seattle Center
Sat 01:58:31 PM 45.4217 -121.1828 298° West 364 419 16,400 -1,878 Descending Seattle Center
Sat 01:59:25 PM 45.4497 -121.3083 288° West 348 400 14,800 -1,805 Descending Seattle Center
Sat 02:00:34 PM 45.4764 -121.4411 286° West 338 389 12,700 -1,836 Descending Seattle Center
Sat 02:01:39 PM 45.5067 -121.5961 286° West 329 379 10,700 -1,268 Descending Seattle Center
Sat 02:02:37 PM 45.5253 -121.6861 286° West 307 353 10,100 -1,160 Descending Seattle Center
Sat 02:03:38 PM 45.5328 -121.7972 276° West 286 329 8,400 -1,574 Descending Seattle Center
Sat 02:04:39 PM 45.5192 -121.9319 262° West 285 328 6,900 -976 Descending Seattle Center
Sat 02:05:41 PM 45.5122 -122.0303 264° West 281 323 6,400 -732 Descending Seattle Center
Sat 02:06:42 PM 45.5019 -122.1375 262° West 277 319 5,400 -1,220 Descending Seattle Center
Sat 02:07:44 PM 45.4875 -122.2653 261° West 272 313 3,900 -976 Descending Seattle Center
Sat 02:08:45 PM 45.5019 -122.3581 283° West 213 245 3,400 -492 Descending Seattle Center

Login

Don't have an account? Register now (free) for customized features, flight alerts, and more!